Accueil
METAR-TAF:

METAR-TAF

Aéroports :

Metz-Nancy-Lorraine, France

Aéroport de Metz-Nancy-Lorraine

latitude: 48-59N, longitude: 006-15E, altitude: 264 m

Observation

Le bulletin a été fait il y a 28 minutes, à 17:00 UTC
Vent 13 kt de ouest
Température 24°C
Humidité 47%
Pression 1015 hPa
Visibilité 10 km ou plus

METAR: LFJL 251700Z AUTO 27013KT 9999 NCD 24/12 Q1015 TEMPO 27015G25KT

Heure: 19:28 (17:28 UTC)


TAF: absent

Observations et prévisions météorologiques de plus de 4000 aéroports (messages METAR et TAF).

Les stations disponibles sont représentées par des disques jaunes et rouges sur la carte.

Passer la souris dessus pour voir le nom de la station.

Cliquer dessus pour voir les observations et prévisions météorologiques.

Pour changer de carte: cliquez sur les boutons verts avec une croix noire pour zoomer, sur le bouton vert avec un tiret pour effectuer un zoom arrière, ou sur les flèches vertes pour les cartes adjacentes.


METAR-TAF: